Hlavní strana
METAR-TAF:

METAR-TAF

Letiště :

Letiště Sofie

Sofie, Bulharsko

zeměpisná šířka: 42-39N, zeměpisná délka: 023-23E, výška: 586 m

Aktuální stav počasí

Zpráva byla vytvořena před 29 minutami, v 06:30 UTC
vítr z různých směrů 2 kt
Teplota 8°C
Vlhkost vzduchu 93%
Tlak 1017 hPa
Viditelnost: 6000 m
Skoro jasno ve výšce 600 ft
Zataženo ve výšce 2100 ft
déšť

METAR: LBSF 220630Z VRB02KT 6000 RA FEW006 OVC021 08/07 Q1017 TEMPO 4000 BR

Čas: 08:59 (06:59 UTC)

Předpověď počasí

Zpráva byla vytvořena před 1 hodinou a 59 minutami, v 05:00 UTC
Předpověď platná od 22 v 06 UTC do 23 v 06 UTC
vítr z různých směrů 4 kt
Viditelnost: 7000 m
Zataženo ve výšce 1800 ft
Dočasný
od 22 v 06 UTC do 22 v 12 UTC
Viditelnost: 4000 m
déšť

TAF: LBSF 220500Z 2206/2306 VRB04KT 7000 OVC018 TEMPO 2206/2212 4000 RA

Stav a předpovědi počasí z více než 4 000 letišť (zprávy METAR a TAF).

Červené a žluté tečky na mapě představují dostupné meteorologické stanice.

Když kurzor umístíte na tečku, zobrazí se název stanice.

Pak kliknutím zobrazíte stav a předpověď počasí.

Chcete-li změnit mapu, kliknutím na zelené tlačítko se znaménkem +mapu přiblížíte, kliknutím na zelené tlačítko se znaménkem – mapu oddálíte a kliknutím na zelené šipky přejdete na sousední mapy.


METAR-TAF: